Argyle Township, Maine
Current Conditions -  °F | °C
As of 7:53 PM on Saturday 22 Nov 2014 (Local Time) from KBGR Reporting Station
Overcast Overcast  
Wind Chill: 27°   Ceiling: 4800
Heat Index: 33°   Visibility: 10mi
Dew Point: 12°   Wind: 7mph
Humidity: 42%   Direction: 220°SW
Pressure: 29.92"   Gusts: NA
Location:  45.0236°N, 68.7394°W
Report Text: KBGR 230053Z 22006KT 10SM BKN048 OVC100 01/M11 A2992 RMK AO2 SLP136 T00061111
Loading
Personal Weather Stations






























Interactive Weather Map New forecast layout! Learn more

10-Day Weather Forecast

Advertisements
Track Severe Weather on mobile